Flight Track Log - Related Links

Times and Time Zones

All times are in EDT time to prevent confusion due to time zone crossing. See the JBU1190 flight status page for this flight to view local times or setup timezone preferences in your user account.

Time Position Orientation Groundspeed Altitude Reporting Facility
EDT Latitude Longitude Course Direction KTS MPH feet Rate Location/Type
Sun 08:01:59 AM 38.8833 -77.0667 62° Northeast 136 157 1,900  Level Potomac TRACON
Sun 08:02:59 AM 38.9167 -77.1000 322° Northwest 195 224 3,800 1,983 Climbing Potomac TRACON
Sun 08:04:00 AM 38.9833 -77.1333 339° North 264 304 5,900 2,430 Climbing Potomac TRACON
Sun 08:05:00 AM 39.0000 -77.0500 76° East 282 325 8,700 2,750 Climbing Potomac TRACON
Sun 08:06:00 AM 39.0686 -76.4256 62° Northeast  Level FlightAware Approximate
Sun 08:06:00 AM 39.0167 -76.9500 78° East 310 357 11,400  Level Potomac TRACON
Sun 08:07:00 AM 39.0500 -76.8333 70° East 310 357 14,200 2,416 Climbing Potomac TRACON
Sun 08:08:34 AM 39.0733 -76.6664 80° East 335 386 17,600 2,217 Climbing Washington Center
Sun 08:09:37 AM 39.0950 -76.5436 77° East 335 386 20,000 2,231 Climbing Washington Center
Sun 08:10:35 AM 39.1169 -76.4156 78° East 345 397 22,100 1,525 Climbing Washington Center
Sun 08:11:35 AM 39.1386 -76.2819 78° East 364 419 23,000 446 Climbing Washington Center
Sun 08:12:36 AM 39.1644 -76.1350 77° East 385 443 23,000 344 Level Washington Center
Sun 08:13:37 AM 39.1794 -75.9878 82° East 404 465 23,700 1,160 Climbing Washington Center
Sun 08:14:35 AM 39.2217 -75.8408 70° East 417 480 25,300 1,563 Climbing Washington Center
Sun 08:15:36 AM 39.3156 -75.7203 45° Northeast 433 498 26,800 1,300 Climbing Washington Center
Sun 08:16:35 AM 39.4114 -75.5997 44° Northeast 453 521 27,900 1,299 Climbing Washington Center
Sun 08:18:50 AM 39.6408 -75.3000 45° Northeast 485 558 31,000 954 Climbing New York Center
Sun 08:19:50 AM 39.7356 -75.1656 47° Northeast 491 565 31,000  Level New York Center
Sun 08:20:50 AM 39.8347 -75.0231 48° Northeast 510 587 31,000  Level New York Center
Sun 08:21:50 AM 39.9314 -74.8831 48° Northeast 515 593 31,000  Level New York Center
Sun 08:22:50 AM 40.0169 -74.7606 48° Northeast 520 598 31,000  Level New York Center
Sun 08:23:50 AM 40.1153 -74.6197 48° Northeast 520 598 31,000  Level New York Center
Sun 08:24:50 AM 40.2075 -74.4753 50° Northeast 520 598 31,000  Level New York Center
Sun 08:25:50 AM 40.3017 -74.3306 50° Northeast 520 598 31,000  Level New York Center
Sun 08:26:50 AM 40.3956 -74.1828 50° Northeast 520 598 31,000  Level New York Center
Sun 08:27:50 AM 40.4853 -74.0372 51° Northeast 514 592 31,000 -184 Level New York Center
Sun 08:29:33 AM 40.6364 -73.7997 50° Northeast 520 598 30,500 -585 Descending Boston Center
Sun 08:30:34 AM 40.7367 -73.6414 50° Northeast 520 598 29,400 -1,415 Descending Boston Center
Sun 08:31:36 AM 40.8194 -73.5083 51° Northeast 511 588 27,600 -1,171 Descending Boston Center
Sun 08:32:37 AM 40.9089 -73.3678 50° Northeast 502 578 27,000 -992 Descending Boston Center
Sun 08:33:37 AM 40.9967 -73.2133 53° Northeast 499 574 25,600 -1,627 Descending Boston Center
Sun 08:34:35 AM 41.0694 -73.0617 57° Northeast 493 567 23,800 -1,311 Descending Boston Center
Sun 08:35:36 AM 41.1392 -72.9192 57° Northeast 471 542 23,000 -393 Descending Boston Center
Sun 08:36:37 AM 41.2039 -72.7850 57° Northeast 443 510 23,000  Level Boston Center
Sun 08:37:40 AM 41.2708 -72.6475 57° Northeast 440 506 23,000  Level Boston Center
Sun 08:38:40 AM 41.3456 -72.4889 58° Northeast 433 498 23,000  Level Boston Center
Sun 08:39:39 AM 41.4106 -72.3528 57° Northeast 433 498 23,000  Level Boston Center
Sun 08:40:39 AM 41.4742 -72.2197 57° Northeast 431 496 23,000 -1,000 Level Boston Center
Sun 08:41:39 AM 41.5283 -72.0756 63° Northeast 432 497 21,000 -2,081 Descending Boston Center
Sun 08:42:43 AM 41.5775 -71.9300 66° East 432 497 18,700 -2,262 Descending Boston Center
Sun 08:43:41 AM 41.6206 -71.7850 68° East 423 487 16,400 -2,218 Descending Boston Center
Sun 08:44:42 AM 41.6600 -71.6486 69° East 400 460 14,300 -2,032 Descending Boston Center
Sun 08:45:45 AM 41.7019 -71.5083 68° East 385 443 12,200 -1,659 Descending Boston Center
Sun 08:46:45 AM 41.7425 -71.3914 65° Northeast 346 398 10,900 -1,488 Descending Boston Center
Sun 08:47:46 AM 41.7983 -71.2997 51° Northeast 319 367 9,200 -1,500 Descending Boston Center
Sun 08:48:45 AM 41.8700 -71.2411 31° Northeast 315 362 7,900 -992 Descending Boston Center
Sun 08:49:47 AM 41.9578 -71.2008 19° North 313 360 7,200 -1,041 Descending Boston Center
Sun 08:50:46 AM 42.0353 -71.1647 19° North 298 343 5,800 -950 Descending Boston Center
Sun 08:51:47 AM 42.0994 -71.1331 20° North 246 283 5,300 -744 Descending Boston Center
Sun 08:52:47 AM 42.1542 -71.1078 19° North 214 246 4,300 -1,073 Descending Boston Center
Sun 08:53:50 AM 42.2094 -71.0806 20° North 212 244 3,100 -1,131 Descending Boston Center
Sun 08:54:49 AM 42.2636 -71.0533 20° North 209 241 2,000 -992 Descending Boston Center
Sun 08:55:51 AM 42.3078 -71.0325 19° North 196 226 1,100 -732 Descending Boston Center
Sun 08:56:52 AM 42.3444 -71.0136 21° North 153 176 500 -590 Descending Boston Center
Sun 08:58:00 AM 42.3500 -71.0000 North  Level FlightAware Approximate
Sun 09:05:00 AM 42.3630 -71.0064 North  Level Estimated

Login

Don't have an account? Register now (free) for customized features, flight alerts, and more!